createdAt,value
2023-02-05T00:02:03.834Z,7.03
2023-02-05T00:04:31.172Z,6.82
2023-02-05T00:06:58.446Z,6.03
2023-02-05T00:09:26.009Z,5.75
2023-02-05T00:11:53.231Z,6.85
2023-02-05T00:14:21.336Z,6.30
2023-02-05T00:16:48.796Z,5.70
2023-02-05T00:19:16.110Z,6.53
2023-02-05T00:21:44.333Z,5.50
2023-02-05T00:24:12.017Z,5.55
2023-02-05T00:26:40.642Z,4.95
2023-02-05T00:29:07.903Z,6.68
2023-02-05T00:31:35.333Z,5.88
2023-02-05T00:34:02.633Z,5.78
2023-02-05T00:36:29.945Z,5.55
2023-02-05T00:38:57.348Z,5.97
2023-02-05T00:41:25.079Z,5.90
2023-02-05T00:43:52.259Z,6.43
2023-02-05T00:46:19.676Z,6.80
2023-02-05T00:48:47.300Z,5.90
2023-02-05T00:51:14.778Z,5.78
2023-02-05T00:53:42.480Z,5.93
2023-02-05T00:56:09.665Z,5.68
2023-02-05T00:58:37.151Z,6.03
2023-02-05T01:01:04.984Z,7.15
2023-02-05T01:03:33.315Z,6.10
2023-02-05T01:06:03.214Z,6.32
2023-02-05T01:08:30.996Z,7.05
2023-02-05T01:10:58.691Z,5.57
2023-02-05T01:13:26.109Z,7.55
2023-02-05T01:15:53.626Z,8.15
2023-02-05T01:18:20.927Z,6.40
2023-02-05T01:20:48.246Z,6.90
2023-02-05T01:23:15.705Z,6.03
2023-02-05T01:25:42.925Z,5.85
2023-02-05T01:28:10.213Z,6.03
2023-02-05T01:30:37.993Z,6.72
2023-02-05T01:33:05.198Z,6.15
2023-02-05T01:35:33.140Z,6.55
2023-02-05T01:38:01.005Z,6.55
2023-02-05T01:40:28.608Z,6.00
2023-02-05T01:42:55.808Z,5.30
2023-02-05T01:45:23.020Z,5.78
2023-02-05T01:47:55.934Z,6.07
2023-02-05T01:50:43.455Z,8.20
2023-02-05T01:53:16.910Z,6.25
2023-02-05T01:55:51.807Z,5.50
2023-02-05T01:58:19.739Z,7.38
2023-02-05T02:00:47.771Z,6.50
2023-02-05T02:03:15.986Z,6.10
2023-02-05T02:05:43.478Z,5.60
2023-02-05T02:08:13.051Z,5.93
2023-02-05T02:10:43.754Z,5.00
2023-02-05T02:13:13.078Z,5.30
2023-02-05T02:15:41.212Z,5.10
2023-02-05T02:18:28.357Z,5.65
2023-02-05T02:21:23.072Z,5.90
2023-02-05T02:23:56.512Z,6.53
2023-02-05T02:26:26.893Z,5.00
2023-02-05T02:29:01.808Z,5.70
2023-02-05T02:31:38.544Z,6.50
2023-02-05T02:34:25.521Z,5.57
2023-02-05T02:36:59.736Z,4.90
2023-02-05T02:39:34.127Z,5.75
2023-02-05T02:42:13.690Z,6.70
2023-02-05T02:44:48.512Z,5.43
2023-02-05T02:47:22.039Z,5.03
2023-02-05T02:49:58.561Z,5.00
2023-02-05T02:52:29.635Z,5.05
2023-02-05T02:55:00.684Z,5.72
2023-02-05T02:57:29.347Z,5.45
2023-02-05T03:00:01.167Z,6.28
2023-02-05T03:02:35.322Z,5.20
2023-02-05T03:05:08.835Z,4.88
2023-02-05T03:07:45.072Z,4.93
2023-02-05T03:10:55.037Z,3.72
2023-02-05T03:13:22.972Z,3.92
2023-02-05T03:15:56.262Z,4.57
2023-02-05T03:18:24.737Z,4.63
2023-02-05T03:21:09.223Z,4.93
2023-02-05T03:23:36.468Z,3.80
2023-02-05T03:26:03.995Z,3.72
2023-02-05T03:28:40.492Z,3.83
2023-02-05T03:31:22.404Z,3.80
2023-02-05T03:34:01.121Z,3.25
2023-02-05T03:36:43.327Z,3.13
2023-02-05T03:39:18.606Z,2.80
2023-02-05T03:42:11.001Z,3.38
2023-02-05T03:45:00.182Z,2.97
2023-02-05T03:47:58.059Z,2.53
2023-02-05T03:50:33.246Z,2.53
2023-02-05T03:53:36.999Z,2.58
2023-02-05T03:56:28.724Z,2.25
2023-02-05T03:58:58.514Z,4.43
2023-02-05T04:01:27.859Z,2.55
2023-02-05T04:03:55.523Z,2.22
2023-02-05T04:06:23.931Z,2.20
2023-02-05T04:08:53.815Z,2.03
2023-02-05T04:11:21.206Z,1.83
2023-02-05T04:13:49.386Z,2.38
2023-02-05T04:16:16.741Z,1.85
2023-02-05T04:18:44.024Z,1.67
2023-02-05T04:21:11.500Z,1.85
2023-02-05T04:23:41.722Z,1.80
2023-02-05T04:26:09.422Z,1.95
2023-02-05T04:28:43.993Z,2.47
2023-02-05T04:31:12.756Z,2.13
2023-02-05T04:33:42.656Z,3.20
2023-02-05T04:36:12.404Z,1.90
2023-02-05T04:38:40.350Z,1.92
2023-02-05T04:41:08.175Z,2.35
2023-02-05T04:43:35.540Z,2.88
2023-02-05T04:46:10.395Z,1.55
2023-02-05T04:48:38.836Z,2.17
2023-02-05T04:51:07.699Z,1.88
2023-02-05T04:53:34.940Z,2.00
2023-02-05T04:56:06.139Z,2.20
2023-02-05T04:58:33.456Z,1.83
2023-02-05T05:01:00.912Z,2.17
2023-02-05T05:03:28.167Z,1.92
2023-02-05T05:05:55.387Z,2.17
2023-02-05T05:08:22.980Z,1.60
2023-02-05T05:10:50.248Z,1.67
2023-02-05T05:13:17.537Z,2.03
2023-02-05T05:15:44.802Z,1.95
2023-02-05T05:18:12.141Z,1.73
2023-02-05T05:20:40.751Z,1.92
2023-02-05T05:23:09.705Z,1.75
2023-02-05T05:25:42.525Z,2.10
2023-02-05T05:28:09.939Z,2.30
2023-02-05T05:30:41.991Z,1.60
2023-02-05T05:33:09.536Z,1.75
2023-02-05T05:35:37.145Z,2.33
2023-02-05T05:38:04.838Z,2.28
2023-02-05T05:40:51.745Z,2.13
2023-02-05T05:43:39.583Z,3.15
2023-02-05T05:46:08.270Z,1.70
2023-02-05T05:48:35.755Z,2.22
2023-02-05T05:51:03.357Z,1.80
2023-02-05T05:53:31.807Z,2.30
2023-02-05T05:55:59.580Z,2.70
2023-02-05T05:58:27.240Z,2.60
2023-02-05T06:00:56.849Z,3.03
2023-02-05T06:03:24.321Z,1.75
2023-02-05T06:05:51.598Z,2.30
2023-02-05T06:08:18.913Z,1.98
2023-02-05T06:10:46.233Z,1.98
2023-02-05T06:13:13.797Z,2.22
2023-02-05T06:15:41.563Z,3.92
2023-02-05T06:18:08.690Z,2.00
2023-02-05T06:20:36.322Z,2.38
2023-02-05T06:23:03.618Z,2.20
2023-02-05T06:25:30.953Z,2.17
2023-02-05T06:27:58.662Z,2.90
2023-02-05T06:30:26.082Z,2.50
2023-02-05T06:32:53.385Z,2.08
2023-02-05T06:35:20.716Z,2.65
2023-02-05T06:37:48.112Z,2.40
2023-02-05T06:40:18.194Z,3.10
2023-02-05T06:42:45.872Z,2.13
2023-02-05T06:45:13.113Z,2.88
2023-02-05T06:47:40.420Z,3.83
2023-02-05T06:50:08.012Z,2.75
2023-02-05T06:52:35.461Z,2.13
2023-02-05T06:55:02.871Z,2.58
2023-02-05T06:57:31.834Z,2.55
2023-02-05T06:59:59.584Z,2.20
2023-02-05T07:02:27.028Z,2.47
2023-02-05T07:04:54.255Z,2.33
2023-02-05T07:07:21.565Z,2.05
2023-02-05T07:09:49.305Z,3.10
2023-02-05T07:12:16.491Z,3.85
2023-02-05T07:14:43.877Z,3.08
2023-02-05T07:17:11.586Z,3.40
2023-02-05T07:19:38.866Z,2.60
2023-02-05T07:22:06.147Z,2.35
2023-02-05T07:24:33.398Z,2.45
2023-02-05T07:27:00.698Z,3.10
2023-02-05T07:29:28.253Z,2.75
2023-02-05T07:31:55.532Z,3.03
2023-02-05T07:34:22.977Z,2.33
2023-02-05T07:36:51.707Z,2.10
2023-02-05T07:39:19.891Z,2.25
2023-02-05T07:41:47.473Z,2.58
2023-02-05T07:44:25.340Z,2.88
2023-02-05T07:46:52.577Z,2.78
2023-02-05T07:49:19.837Z,2.80
2023-02-05T07:51:47.756Z,2.50
2023-02-05T07:54:15.716Z,2.95
2023-02-05T07:56:43.266Z,3.03
2023-02-05T07:59:10.616Z,4.97
2023-02-05T08:01:37.848Z,2.65
2023-02-05T08:04:05.177Z,2.60
2023-02-05T08:06:33.604Z,3.08
2023-02-05T08:09:00.977Z,2.63
2023-02-05T08:11:28.330Z,3.83
2023-02-05T08:13:55.553Z,3.10
2023-02-05T08:16:22.885Z,2.58
2023-02-05T08:18:50.778Z,3.83
2023-02-05T08:21:19.366Z,2.83
2023-02-05T08:23:46.652Z,3.30
2023-02-05T08:26:15.593Z,2.90
2023-02-05T08:28:43.406Z,2.70
2023-02-05T08:31:16.162Z,3.50
2023-02-05T08:33:43.934Z,3.10
2023-02-05T08:36:11.573Z,3.25
2023-02-05T08:38:38.943Z,3.17
2023-02-05T08:41:14.300Z,3.22
2023-02-05T08:43:43.875Z,3.45
2023-02-05T08:46:12.727Z,3.63
2023-02-05T08:48:40.408Z,2.50
2023-02-05T08:51:10.875Z,3.60
2023-02-05T08:53:38.622Z,3.08
2023-02-05T08:56:06.984Z,3.05
2023-02-05T08:58:34.621Z,3.70
2023-02-05T09:01:07.137Z,6.22
2023-02-05T09:03:34.415Z,3.45
2023-02-05T09:06:05.657Z,2.42
2023-02-05T09:08:32.981Z,2.72
2023-02-05T09:11:00.456Z,3.33
2023-02-05T09:13:27.754Z,2.88
2023-02-05T09:15:55.127Z,4.28
2023-02-05T09:18:22.538Z,3.35
2023-02-05T09:20:50.668Z,2.38
2023-02-05T09:23:18.974Z,3.75
2023-02-05T09:25:46.433Z,3.03
2023-02-05T09:28:15.034Z,3.50
2023-02-05T09:30:45.600Z,2.75
2023-02-05T09:33:14.245Z,3.58
2023-02-05T09:35:42.248Z,3.00
2023-02-05T09:38:13.643Z,4.45
2023-02-05T09:41:05.432Z,4.38
2023-02-05T09:43:50.679Z,2.58
2023-02-05T09:46:31.918Z,3.35
2023-02-05T09:49:21.233Z,4.05
2023-02-05T09:51:52.890Z,3.00
2023-02-05T09:54:28.070Z,3.78
2023-02-05T09:57:03.391Z,3.65
2023-02-05T09:59:32.790Z,3.10
2023-02-05T10:02:22.576Z,3.30
2023-02-05T10:04:57.684Z,3.63
2023-02-05T10:07:45.924Z,4.97
2023-02-05T10:10:25.269Z,3.38
2023-02-05T10:13:21.489Z,3.10
2023-02-05T10:16:23.260Z,4.30
2023-02-05T10:19:20.023Z,4.03
2023-02-05T10:22:00.644Z,3.60
2023-02-05T10:24:55.739Z,3.10
2023-02-05T10:27:27.859Z,4.60
2023-02-05T10:30:06.480Z,3.15
2023-02-05T10:33:05.364Z,3.97
2023-02-05T10:35:49.759Z,3.13
2023-02-05T10:38:25.273Z,4.65
2023-02-05T10:40:59.340Z,3.22
2023-02-05T10:43:43.092Z,2.90
2023-02-05T10:46:14.838Z,4.57
2023-02-05T10:49:12.108Z,4.13
2023-02-05T10:51:44.688Z,3.75
2023-02-05T10:54:33.760Z,3.78
2023-02-05T10:57:01.515Z,2.97
2023-02-05T10:59:31.322Z,3.53
2023-02-05T11:02:03.879Z,2.65
2023-02-05T11:04:42.308Z,3.78
2023-02-05T11:07:32.377Z,4.05
2023-02-05T11:10:17.673Z,4.30
2023-02-05T11:12:51.928Z,3.75
2023-02-05T11:15:23.721Z,3.42
2023-02-05T11:18:21.777Z,3.47
2023-02-05T11:20:56.768Z,3.67
2023-02-05T11:23:26.427Z,2.53
2023-02-05T11:26:08.314Z,3.22
2023-02-05T11:28:41.235Z,2.88
2023-02-05T11:31:27.064Z,4.38
2023-02-05T11:34:16.869Z,4.13
2023-02-05T11:36:57.391Z,3.75
2023-02-05T11:39:39.401Z,4.72
2023-02-05T11:42:20.074Z,3.28
2023-02-05T11:44:55.026Z,3.88
2023-02-05T11:47:46.110Z,6.78
2023-02-05T11:50:25.846Z,3.50
2023-02-05T11:52:55.677Z,2.63
2023-02-05T11:55:32.170Z,3.13
2023-02-05T11:58:03.088Z,3.05
2023-02-05T12:00:31.034Z,3.33
2023-02-05T12:03:17.984Z,4.05
2023-02-05T12:06:04.566Z,3.00
2023-02-05T12:08:51.739Z,3.45
2023-02-05T12:11:54.673Z,3.00
2023-02-05T12:14:37.380Z,3.30
2023-02-05T12:17:29.817Z,2.45
2023-02-05T12:20:03.630Z,4.15
2023-02-05T12:23:06.180Z,3.35
2023-02-05T12:25:50.276Z,2.78
2023-02-05T12:28:18.177Z,2.78
2023-02-05T12:31:10.679Z,3.08
2023-02-05T12:33:57.496Z,2.75
2023-02-05T12:36:44.583Z,2.90
2023-02-05T12:39:31.232Z,2.97
2023-02-05T12:42:22.373Z,2.40
2023-02-05T12:45:01.775Z,2.55
2023-02-05T12:48:01.926Z,3.20
2023-02-05T12:51:03.020Z,4.40
2023-02-05T12:53:42.519Z,2.33
2023-02-05T12:56:38.856Z,3.42
2023-02-05T12:59:18.818Z,3.40
2023-02-05T13:01:52.978Z,3.28
2023-02-05T13:04:27.137Z,2.88
2023-02-05T13:07:08.488Z,2.78
2023-02-05T13:09:42.024Z,3.72
2023-02-05T13:12:13.996Z,3.42
2023-02-05T13:14:46.493Z,3.60
2023-02-05T13:17:28.183Z,3.20
2023-02-05T13:20:01.870Z,4.18
2023-02-05T13:22:54.014Z,2.80
2023-02-05T13:26:06.695Z,2.72
2023-02-05T13:28:46.754Z,3.15
2023-02-05T13:31:24.234Z,4.22
2023-02-05T13:33:54.639Z,2.55
2023-02-05T13:36:46.300Z,3.05
2023-02-05T13:39:34.667Z,2.92
2023-02-05T13:42:48.788Z,2.92
2023-02-05T13:45:41.404Z,3.33
2023-02-05T13:48:41.210Z,2.90
2023-02-05T13:51:38.119Z,3.72
2023-02-05T13:54:38.038Z,2.70
2023-02-05T13:57:21.124Z,3.28
2023-02-05T13:59:53.060Z,4.80
2023-02-05T14:02:39.285Z,2.47
2023-02-05T14:05:07.754Z,3.28
2023-02-05T14:07:45.844Z,3.30
2023-02-05T14:10:33.372Z,4.35
2023-02-05T14:13:28.572Z,3.03
2023-02-05T14:16:00.481Z,2.65
2023-02-05T14:18:40.328Z,2.78
2023-02-05T14:21:29.583Z,3.10
2023-02-05T14:24:15.980Z,2.88
2023-02-05T14:26:51.775Z,2.60
2023-02-05T14:29:48.185Z,3.75
2023-02-05T14:32:30.478Z,2.83
2023-02-05T14:34:59.048Z,3.38
2023-02-05T14:37:38.193Z,2.75
2023-02-05T14:40:27.365Z,3.10
2023-02-05T14:43:09.615Z,2.78
2023-02-05T14:45:47.034Z,3.55
2023-02-05T14:48:30.712Z,4.30
2023-02-05T14:51:38.314Z,4.15
2023-02-05T14:54:08.003Z,3.78
2023-02-05T14:56:44.014Z,3.13
2023-02-05T14:59:29.434Z,4.03
2023-02-05T15:01:59.472Z,4.22
2023-02-05T15:04:29.807Z,3.35
2023-02-05T15:07:01.781Z,2.83
2023-02-05T15:09:50.875Z,3.65
2023-02-05T15:12:46.561Z,3.95
2023-02-05T15:15:30.446Z,3.25
2023-02-05T15:18:04.755Z,3.20
2023-02-05T15:20:36.128Z,3.58
2023-02-05T15:23:23.458Z,4.35
2023-02-05T15:26:03.754Z,3.28
2023-02-05T15:28:45.812Z,3.00
2023-02-05T15:31:41.623Z,3.55
2023-02-05T15:34:22.794Z,3.85
2023-02-05T15:37:14.335Z,2.20
2023-02-05T15:39:59.441Z,3.83
2023-02-05T15:42:37.340Z,3.35
2023-02-05T15:45:25.676Z,3.67
2023-02-05T15:48:03.896Z,3.45
2023-02-05T15:50:35.368Z,4.28
2023-02-05T15:53:32.824Z,4.35
2023-02-05T15:56:13.054Z,4.70
2023-02-05T15:58:47.604Z,3.88
2023-02-05T16:01:26.493Z,3.63
2023-02-05T16:03:54.097Z,4.40
2023-02-05T16:06:24.286Z,3.33
2023-02-05T16:08:53.666Z,2.95
2023-02-05T16:11:32.199Z,3.72
2023-02-05T16:14:10.793Z,3.20
2023-02-05T16:16:42.701Z,3.35
2023-02-05T16:19:17.648Z,3.72
2023-02-05T16:21:52.375Z,3.78
2023-02-05T16:25:01.633Z,2.97
2023-02-05T16:27:46.507Z,3.58
2023-02-05T16:30:18.704Z,3.85
2023-02-05T16:32:47.252Z,3.83
2023-02-05T16:35:34.341Z,2.90
2023-02-05T16:38:03.680Z,4.07
2023-02-05T16:40:40.736Z,4.53
2023-02-05T16:43:34.507Z,3.55
2023-02-05T16:46:22.006Z,3.75
2023-02-05T16:48:56.619Z,5.40
2023-02-05T16:51:32.952Z,3.05
2023-02-05T16:54:03.078Z,3.80
2023-02-05T16:56:35.757Z,4.80
2023-02-05T16:59:05.460Z,4.10
2023-02-05T17:01:39.139Z,3.65
2023-02-05T17:04:07.478Z,4.45
2023-02-05T17:06:37.369Z,4.10
2023-02-05T17:09:05.718Z,3.70
2023-02-05T17:11:43.733Z,5.88
2023-02-05T17:14:35.751Z,4.43
2023-02-05T17:17:25.119Z,5.45
2023-02-05T17:20:17.518Z,4.75
2023-02-05T17:23:12.523Z,4.70
2023-02-05T17:25:49.507Z,5.78
2023-02-05T17:28:20.040Z,6.15
2023-02-05T17:30:48.890Z,5.50
2023-02-05T17:33:22.414Z,5.88
2023-02-05T17:35:51.286Z,6.28
2023-02-05T17:38:26.192Z,7.38
2023-02-05T17:41:13.590Z,8.25
2023-02-05T17:43:41.266Z,9.32
2023-02-05T17:46:15.059Z,9.05
2023-02-05T17:48:44.468Z,9.73
2023-02-05T17:51:20.316Z,11.00
2023-02-05T17:53:48.904Z,9.95
2023-02-05T17:56:19.097Z,9.90
2023-02-05T17:58:46.363Z,10.05
2023-02-05T18:01:13.750Z,9.82
2023-02-05T18:03:41.519Z,10.15
2023-02-05T18:06:11.501Z,10.27
2023-02-05T18:08:38.823Z,11.68
2023-02-05T18:11:06.169Z,11.18
2023-02-05T18:13:34.058Z,11.63
2023-02-05T18:16:03.412Z,9.98
2023-02-05T18:18:32.479Z,9.85
2023-02-05T18:20:59.794Z,9.38
2023-02-05T18:23:29.435Z,10.13
2023-02-05T18:26:00.616Z,10.35
2023-02-05T18:28:28.553Z,9.20
2023-02-05T18:31:01.546Z,9.90
2023-02-05T18:33:28.981Z,9.60
2023-02-05T18:36:01.293Z,9.98
2023-02-05T18:38:31.015Z,9.65
2023-02-05T18:41:05.671Z,9.60
2023-02-05T18:43:34.235Z,8.45
2023-02-05T18:46:09.172Z,8.13
2023-02-05T18:48:37.412Z,8.82
2023-02-05T18:51:06.304Z,9.10
2023-02-05T18:53:35.291Z,8.23
2023-02-05T18:56:06.116Z,8.73
2023-02-05T18:58:34.182Z,10.30
2023-02-05T19:01:22.241Z,9.48
2023-02-05T19:03:52.736Z,10.95
2023-02-05T19:06:21.675Z,10.07
2023-02-05T19:08:49.983Z,10.80
2023-02-05T19:11:24.195Z,8.85
2023-02-05T19:14:00.049Z,9.63
2023-02-05T19:16:27.640Z,9.80
2023-02-05T19:18:55.230Z,9.90
2023-02-05T19:21:23.913Z,9.43
2023-02-05T19:23:54.119Z,8.88
2023-02-05T19:26:23.818Z,11.48
2023-02-05T19:29:02.252Z,10.57
2023-02-05T19:31:31.752Z,10.23
2023-02-05T19:34:00.104Z,14.02
2023-02-05T19:36:28.504Z,14.93
2023-02-05T19:38:56.173Z,13.20
2023-02-05T19:41:26.302Z,12.35
2023-02-05T19:44:02.155Z,11.63
2023-02-05T19:46:32.099Z,11.27
2023-02-05T19:49:05.878Z,11.32
2023-02-05T19:51:33.718Z,12.43
2023-02-05T19:54:03.000Z,14.10
2023-02-05T19:56:32.245Z,12.60
2023-02-05T19:58:59.672Z,12.57
2023-02-05T20:01:29.583Z,13.23
2023-02-05T20:03:59.861Z,15.82
2023-02-05T20:06:29.344Z,13.13
2023-02-05T20:08:57.158Z,14.57
2023-02-05T20:11:24.405Z,13.52
2023-02-05T20:13:53.569Z,15.55
2023-02-05T20:16:22.903Z,16.58
2023-02-05T20:18:56.043Z,15.45
2023-02-05T20:21:24.218Z,15.15
2023-02-05T20:23:51.517Z,15.63
2023-02-05T20:26:19.344Z,17.45
2023-02-05T20:29:06.508Z,20.30
2023-02-05T20:31:34.495Z,16.88
2023-02-05T20:34:03.097Z,15.02
2023-02-05T20:36:31.971Z,16.55
2023-02-05T20:39:00.770Z,16.92
2023-02-05T20:41:28.113Z,17.10
2023-02-05T20:43:57.837Z,19.23
2023-02-05T20:46:25.906Z,18.85
2023-02-05T20:48:53.199Z,20.77
2023-02-05T20:51:22.748Z,22.45
2023-02-05T20:53:50.429Z,23.65
2023-02-05T20:56:20.159Z,20.55
2023-02-05T20:58:47.567Z,18.52
2023-02-05T21:01:20.661Z,21.33
2023-02-05T21:03:50.880Z,21.73
2023-02-05T21:06:19.761Z,20.58
2023-02-05T21:08:49.095Z,19.55
2023-02-05T21:11:17.153Z,19.73
2023-02-05T21:13:46.469Z,18.88
2023-02-05T21:16:15.631Z,20.30
2023-02-05T21:18:47.395Z,18.33
2023-02-05T21:21:21.188Z,21.48
2023-02-05T21:23:52.291Z,22.73
2023-02-05T21:26:29.709Z,20.27
2023-02-05T21:28:59.572Z,19.05
2023-02-05T21:31:33.759Z,21.73
2023-02-05T21:34:02.404Z,26.75
2023-02-05T21:36:30.241Z,21.27
2023-02-05T21:38:57.712Z,20.27
2023-02-05T21:41:25.467Z,19.73
2023-02-05T21:43:55.668Z,20.90
2023-02-05T21:46:24.207Z,21.48
2023-02-05T21:48:54.391Z,22.15
2023-02-05T21:51:24.034Z,23.42
2023-02-05T21:53:58.739Z,21.75
2023-02-05T21:56:29.449Z,22.27
2023-02-05T21:58:57.615Z,27.70
2023-02-05T22:01:27.238Z,21.90
2023-02-05T22:04:15.506Z,20.30
2023-02-05T22:06:44.005Z,22.55
2023-02-05T22:09:13.865Z,23.90
2023-02-05T22:11:42.306Z,29.20
2023-02-05T22:14:10.456Z,26.40
2023-02-05T22:16:38.331Z,21.13
2023-02-05T22:19:06.559Z,21.88
2023-02-05T22:21:42.444Z,20.45
2023-02-05T22:24:14.843Z,19.42
2023-02-05T22:26:42.812Z,20.75
2023-02-05T22:29:13.396Z,18.92
2023-02-05T22:31:41.238Z,19.45
2023-02-05T22:34:08.710Z,21.50
2023-02-05T22:36:36.275Z,19.98
2023-02-05T22:39:05.750Z,19.73
2023-02-05T22:41:36.074Z,19.35
2023-02-05T22:44:04.993Z,20.35
2023-02-05T22:46:34.940Z,18.90
2023-02-05T22:49:03.577Z,18.88
2023-02-05T22:51:34.254Z,19.30
2023-02-05T22:54:02.093Z,19.10
2023-02-05T22:56:29.757Z,18.10
2023-02-05T22:58:57.351Z,18.13
2023-02-05T23:01:26.049Z,17.05
2023-02-05T23:03:53.804Z,20.10
2023-02-05T23:06:24.095Z,19.75
2023-02-05T23:08:53.755Z,20.85
2023-02-05T23:11:21.967Z,22.27
2023-02-05T23:13:50.347Z,23.13
2023-02-05T23:16:26.796Z,24.33
2023-02-05T23:18:57.894Z,19.98
2023-02-05T23:21:27.631Z,21.17
2023-02-05T23:23:55.075Z,22.50
2023-02-05T23:26:25.280Z,20.05
2023-02-05T23:28:54.222Z,17.98
2023-02-05T23:31:23.170Z,19.25
2023-02-05T23:33:51.434Z,20.10
2023-02-05T23:36:19.088Z,19.38
2023-02-05T23:38:47.146Z,21.15
2023-02-05T23:41:14.498Z,18.95
2023-02-05T23:43:41.785Z,20.52
2023-02-05T23:46:09.233Z,22.05
2023-02-05T23:48:36.631Z,20.20
2023-02-05T23:51:03.888Z,21.17
2023-02-05T23:53:31.136Z,20.48
2023-02-05T23:55:58.395Z,17.80
2023-02-05T23:58:27.977Z,19.80
